首页
METAR-TAF:

METAR-TAF

机场 :

Tri-County Regional Airport

Lone Rock, 威斯康辛州, 美国

纬度: 43-12-43N, 经度: 090-10-53W, 海拔: 219米

当前天气观测

该预报发布于1小时和5分钟前的19:56 UTC
风速11节,风向西转西北
温度 23°C
湿度 44%
气压 1016 hPa
能見度: 16.1公里
少量云层高于7000英尺

METAR: KLNR 231956Z AUTO 29011KT 10SM FEW070 23/10 A3000 RMK AO2 SLP151 T02330100

时间: 16:01 (21:01 UTC)


TAF: 丢失

超过4000个机场的气象观测和天气预报(METAR&TAF报告)。

可查询的气象台以黄色和红色小点在地图上表示。

将鼠标移到小点上方,可查看气象台名称。

然后点击查看天气观测和预报。

如需切换地图:点击带黑十字的绿色按钮放大地图;点击带横线的绿色按钮缩小地图;或者点击绿色箭头查看邻近地区的地图。


METAR-TAF: